Time;durP1;ratioP1;P1;durP2;ratioP2;P2;SDS_P1;SDS_P2;PMS_P1;PMS_P2;Temp;Humidity;BMP_temperature;BMP_pressure;BME280_temperature;BME280_humidity;BME280_pressure;Samples;Min_cycle;Max_cycle;Signal;HPM_P1;HPM_P2
2022/03/25 00:00:02;;;;;;;6.15;4.97;;;19.20;29.60;;;;;;5169195;27;46883;-14
2022/03/25 00:02:29;;;;;;;5.65;4.57;;;19.20;29.70;;;;;;5169001;27;47129;-14
2022/03/25 00:04:55;;;;;;;5.07;4.43;;;19.20;29.70;;;;;;5168950;27;47971;-15
2022/03/25 00:07:22;;;;;;;5.60;4.80;;;19.20;29.70;;;;;;5168987;27;46851;-14
2022/03/25 00:09:49;;;;;;;6.55;4.80;;;19.10;29.70;;;;;;5169076;27;46848;-14
2022/03/25 00:12:17;;;;;;;5.80;4.68;;;19.10;29.70;;;;;;5169324;27;47537;-14
2022/03/25 00:14:43;;;;;;;4.90;4.47;;;19.10;29.70;;;;;;5169103;27;47031;-14
2022/03/25 00:17:10;;;;;;;5.70;4.35;;;19.10;29.80;;;;;;5168409;27;46884;-14
2022/03/25 00:19:37;;;;;;;7.05;4.50;;;19.00;29.70;;;;;;5168873;27;46829;-13
2022/03/25 00:22:04;;;;;;;5.50;4.45;;;19.00;29.70;;;;;;5168578;27;47318;-14
2022/03/25 00:24:30;;;;;;;5.40;4.90;;;19.00;29.80;;;;;;5168629;27;49013;-13
2022/03/25 00:26:57;;;;;;;6.32;4.72;;;19.00;29.80;;;;;;5168550;27;46806;-14
2022/03/25 00:29:25;;;;;;;6.13;5.00;;;19.00;29.80;;;;;;5168871;27;46937;-14
2022/03/25 00:31:52;;;;;;;5.32;4.82;;;18.90;29.80;;;;;;5168787;27;46842;-13
2022/03/25 00:34:19;;;;;;;7.88;5.35;;;18.90;29.80;;;;;;5168307;27;47071;-14
2022/03/25 00:36:46;;;;;;;5.22;4.72;;;18.90;29.90;;;;;;5168240;27;47393;-14
2022/03/25 00:39:12;;;;;;;5.82;4.72;;;18.90;29.80;;;;;;5168605;27;46984;-14
2022/03/25 00:41:39;;;;;;;6.40;5.18;;;18.90;29.90;;;;;;5168578;27;46965;-14
2022/03/25 00:44:07;;;;;;;5.43;4.78;;;18.80;29.90;;;;;;5168611;27;47811;-14
2022/03/25 00:46:35;;;;;;;5.85;5.10;;;18.80;29.90;;;;;;5168014;27;47388;-14
2022/03/25 00:49:01;;;;;;;5.40;4.57;;;18.80;29.90;;;;;;5168230;27;46856;-13
2022/03/25 00:51:28;;;;;;;5.13;4.63;;;18.80;29.90;;;;;;5168553;27;47306;-13
2022/03/25 00:53:55;;;;;;;5.22;4.65;;;18.80;29.90;;;;;;5168374;27;48232;-14
2022/03/25 00:56:22;;;;;;;6.10;4.65;;;18.70;29.90;;;;;;5170173;27;46804;-14
2022/03/25 00:58:49;;;;;;;5.25;4.30;;;18.70;30.00;;;;;;5172253;27;46738;-14
2022/03/25 01:01:16;;;;;;;4.93;4.28;;;18.70;29.90;;;;;;5172154;27;47093;-14
2022/03/25 01:03:44;;;;;;;6.13;4.63;;;18.70;29.90;;;;;;5171737;27;49113;-14
2022/03/25 01:06:11;;;;;;;6.45;4.82;;;18.70;29.90;;;;;;5171888;27;46905;-14
2022/03/25 01:08:37;;;;;;;4.95;4.45;;;18.60;29.90;;;;;;5171946;27;46914;-14
2022/03/25 01:11:05;;;;;;;5.10;4.50;;;18.60;30.00;;;;;;5172012;27;47279;-13
2022/03/25 01:13:33;;;;;;;5.70;4.40;;;18.60;30.00;;;;;;5171657;27;48080;-14
2022/03/25 01:16:01;;;;;;;5.97;4.75;;;18.60;30.00;;;;;;5171819;27;46872;-14
2022/03/25 01:18:27;;;;;;;4.88;4.38;;;18.60;30.00;;;;;;5171913;27;46807;-14
2022/03/25 01:20:55;;;;;;;5.43;4.65;;;18.60;30.00;;;;;;5171895;27;46981;-14
2022/03/25 01:23:22;;;;;;;6.32;5.05;;;18.50;30.00;;;;;;5171710;27;49024;-13
2022/03/25 01:25:49;;;;;;;4.70;4.20;;;18.50;30.00;;;;;;5171210;27;46902;-14
2022/03/25 01:28:16;;;;;;;6.13;4.22;;;18.50;30.00;;;;;;5171419;27;46790;-14
2022/03/25 01:30:43;;;;;;;4.93;4.53;;;18.50;30.00;;;;;;5171589;27;46825;-14
2022/03/25 01:33:09;;;;;;;5.45;4.68;;;18.50;30.00;;;;;;5171161;27;48248;-14
2022/03/25 01:35:36;;;;;;;4.30;3.58;;;18.40;30.00;;;;;;5171455;27;47010;-14
2022/03/25 01:38:04;;;;;;;4.85;4.03;;;18.40;30.00;;;;;;5171367;27;46883;-14
2022/03/25 01:40:31;;;;;;;5.20;4.40;;;18.40;30.00;;;;;;5171286;27;47164;-14
2022/03/25 01:42:58;;;;;;;6.10;4.90;;;18.40;30.00;;;;;;5171337;27;48095;-14
2022/03/25 01:45:31;;;;;;;4.70;4.05;;;18.40;30.00;;;;;;5171131;27;46947;-14
2022/03/25 01:47:57;;;;;;;4.60;4.20;;;18.30;30.00;;;;;;5171510;27;46902;-14
2022/03/25 01:50:24;;;;;;;5.30;4.22;;;18.30;30.00;;;;;;5170993;27;46894;-14
2022/03/25 01:52:51;;;;;;;4.25;3.80;;;18.30;30.10;;;;;;5170964;27;49168;-14
2022/03/25 01:55:21;;;;;;;4.57;3.97;;;18.30;30.10;;;;;;5171013;27;47495;-14
2022/03/25 01:57:48;;;;;;;6.57;4.68;;;18.30;30.10;;;;;;5170971;27;46890;-13
2022/03/25 02:00:16;;;;;;;4.97;4.47;;;18.30;30.80;;;;;;5171070;27;47003;-14
2022/03/25 02:02:43;;;;;;;5.32;4.10;;;18.20;30.10;;;;;;5170722;27;48495;-14
2022/03/25 02:05:10;;;;;;;4.35;3.95;;;18.20;30.10;;;;;;5171097;27;47088;-14
2022/03/25 02:07:37;;;;;;;4.78;4.00;;;18.20;30.10;;;;;;5171048;27;46901;-14
2022/03/25 02:10:04;;;;;;;4.90;4.22;;;18.20;30.10;;;;;;5171266;27;46901;-14
2022/03/25 02:12:34;;;;;;;6.43;4.28;;;18.10;30.10;;;;;;5170578;27;47077;-13
2022/03/25 02:15:01;;;;;;;4.60;3.92;;;18.10;30.10;;;;;;5170871;27;47440;-13
2022/03/25 02:17:27;;;;;;;4.78;4.28;;;18.10;30.20;;;;;;5170992;27;46902;-14
2022/03/25 02:19:54;;;;;;;5.40;4.57;;;18.10;30.20;;;;;;5170742;27;46898;-14
2022/03/25 02:22:22;;;;;;;4.65;4.00;;;18.10;30.20;;;;;;5170590;27;48045;-14
2022/03/25 02:24:49;;;;;;;5.75;4.75;;;18.00;30.20;;;;;;5170803;27;46936;-13
2022/03/25 02:27:16;;;;;;;5.82;4.80;;;18.00;30.10;;;;;;5170436;27;46771;-15
2022/03/25 02:29:43;;;;;;;5.88;4.63;;;18.00;30.10;;;;;;5170643;27;46942;-14
2022/03/25 02:32:10;;;;;;;4.70;4.20;;;18.00;30.20;;;;;;5170277;27;49062;-14
2022/03/25 02:34:37;;;;;;;6.20;3.97;;;18.00;30.20;;;;;;5170631;27;47380;-14
2022/03/25 02:37:04;;;;;;;5.05;4.50;;;18.00;30.20;;;;;;5170420;27;46906;-13
2022/03/25 02:39:32;;;;;;;4.50;4.10;;;17.90;30.10;;;;;;5170496;27;47070;-14
2022/03/25 02:41:59;;;;;;;4.68;4.18;;;17.90;30.10;;;;;;5169874;27;47031;-14
2022/03/25 02:44:27;;;;;;;4.70;4.15;;;17.90;30.10;;;;;;5170622;27;47427;-14
2022/03/25 02:46:54;;;;;;;6.05;4.15;;;17.90;30.10;;;;;;5170057;27;47008;-13
2022/03/25 02:49:21;;;;;;;4.50;4.10;;;17.90;30.20;;;;;;5170813;27;46860;-14
2022/03/25 02:51:48;;;;;;;4.68;4.15;;;17.80;30.20;;;;;;5169835;27;49026;-13
2022/03/25 02:54:15;;;;;;;4.65;3.95;;;17.80;30.20;;;;;;5170310;27;46902;-14
2022/03/25 02:56:43;;;;;;;5.00;4.50;;;17.80;30.20;;;;;;5170128;27;46864;-13
2022/03/25 02:59:09;;;;;;;4.45;4.05;;;17.80;30.20;;;;;;5170692;27;46979;-13
2022/03/25 03:01:36;;;;;;;4.78;4.20;;;17.80;30.20;;;;;;5169734;27;49371;-14
2022/03/25 03:04:03;;;;;;;4.25;3.85;;;17.70;30.20;;;;;;5170201;27;47422;-14
2022/03/25 03:06:30;;;;;;;4.68;4.28;;;17.70;30.20;;;;;;5169865;27;46866;-13
2022/03/25 03:08:57;;;;;;;4.65;4.07;;;17.70;30.20;;;;;;5170323;27;47180;-14
2022/03/25 03:11:24;;;;;;;4.60;4.10;;;17.70;30.30;;;;;;5169456;27;49008;-13
2022/03/25 03:13:52;;;;;;;5.22;4.50;;;17.70;30.30;;;;;;5170088;27;46957;-13
2022/03/25 03:16:19;;;;;;;4.40;3.90;;;17.70;30.30;;;;;;5169918;27;46858;-14
2022/03/25 03:18:46;;;;;;;4.88;4.35;;;17.70;30.30;;;;;;5169657;27;47096;-14
2022/03/25 03:21:13;;;;;;;4.75;4.18;;;17.60;30.30;;;;;;5169289;27;47873;-14
2022/03/25 03:23:39;;;;;;;4.60;4.20;;;17.60;30.30;;;;;;5169953;27;46832;-13
2022/03/25 03:26:06;;;;;;;4.40;3.92;;;17.60;30.30;;;;;;5169880;27;46953;-13
2022/03/25 03:28:34;;;;;;;4.78;3.83;;;17.60;30.30;;;;;;5170021;27;46887;-14
2022/03/25 03:31:02;;;;;;;4.97;4.03;;;17.50;30.30;;;;;;5169329;27;47172;-14
2022/03/25 03:33:28;;;;;;;5.55;4.60;;;17.50;30.30;;;;;;5169650;27;47418;-14
2022/03/25 03:35:55;;;;;;;4.05;3.75;;;17.50;30.40;;;;;;5169471;27;46993;-13
2022/03/25 03:38:22;;;;;;;5.05;4.22;;;17.50;30.40;;;;;;5169544;27;46939;-14
2022/03/25 03:40:48;;;;;;;4.78;4.05;;;17.50;30.40;;;;;;5168945;27;47853;-13
2022/03/25 03:43:15;;;;;;;4.25;3.85;;;17.40;30.40;;;;;;5169389;27;47208;-14
2022/03/25 03:45:42;;;;;;;4.50;3.85;;;17.40;30.40;;;;;;5169512;27;46882;-13
2022/03/25 03:48:11;;;;;;;5.65;3.97;;;17.40;30.50;;;;;;5169503;27;47167;-14
2022/03/25 03:50:38;;;;;;;4.93;3.90;;;17.40;30.50;;;;;;5168818;27;49169;-14
2022/03/25 03:53:05;;;;;;;4.47;4.07;;;17.40;30.50;;;;;;5169177;27;46820;-14
2022/03/25 03:55:31;;;;;;;4.45;3.88;;;17.40;30.50;;;;;;5169201;27;47026;-13
2022/03/25 03:57:58;;;;;;;4.60;3.67;;;17.30;30.50;;;;;;5169242;27;47252;-14
2022/03/25 04:00:25;;;;;;;4.38;3.95;;;17.30;30.50;;;;;;5169085;27;47908;-13
2022/03/25 04:02:52;;;;;;;4.30;3.90;;;17.30;30.50;;;;;;5169031;27;47614;-14
2022/03/25 04:05:20;;;;;;;4.18;3.75;;;17.30;30.50;;;;;;5168905;27;46830;-14
2022/03/25 04:07:48;;;;;;;4.80;3.92;;;17.30;30.50;;;;;;5169058;27;46910;-13
2022/03/25 04:10:15;;;;;;;5.70;4.20;;;17.30;30.50;;;;;;5168874;27;47032;-13
2022/03/25 04:12:42;;;;;;;4.07;3.67;;;17.30;30.60;;;;;;5168974;27;46952;-13
2022/03/25 04:15:10;;;;;;;4.75;3.97;;;17.20;30.50;;;;;;5169040;27;46883;-13
2022/03/25 04:17:37;;;;;;;4.05;3.63;;;17.20;30.50;;;;;;5168888;27;46954;-13
2022/03/25 04:20:04;;;;;;;4.93;4.05;;;17.20;30.60;;;;;;5168738;27;48073;-13
2022/03/25 04:22:32;;;;;;;8.05;4.43;;;17.20;30.60;;;;;;5168756;27;47163;-14
2022/03/25 04:24:59;;;;;;;3.95;3.63;;;17.20;30.60;;;;;;5168879;27;46911;-24
2022/03/25 04:27:26;;;;;;;4.05;3.70;;;17.20;30.60;;;;;;5168888;27;46928;-22
2022/03/25 04:29:52;;;;;;;4.78;4.30;;;17.10;30.60;;;;;;5167728;27;48911;-23
2022/03/25 04:32:19;;;;;;;4.35;3.95;;;17.10;30.70;;;;;;5168635;27;46955;-23
2022/03/25 04:34:46;;;;;;;4.47;4.07;;;17.10;30.60;;;;;;5168755;27;46880;-24
2022/03/25 04:37:12;;;;;;;4.03;3.63;;;17.10;30.70;;;;;;5168987;27;46787;-23
2022/03/25 04:39:40;;;;;;;5.07;4.30;;;17.10;30.60;;;;;;5168287;27;48131;-23
2022/03/25 04:42:08;;;;;;;4.38;4.03;;;17.10;30.60;;;;;;5168385;27;46842;-23
2022/03/25 04:44:35;;;;;;;4.47;4.07;;;17.10;30.70;;;;;;5168690;27;47048;-23
2022/03/25 04:47:03;;;;;;;4.93;4.18;;;17.00;30.60;;;;;;5168662;27;47299;-23
2022/03/25 04:49:30;;;;;;;4.20;3.70;;;17.00;30.70;;;;;;5168101;27;47843;-24
2022/03/25 04:51:56;;;;;;;4.75;4.15;;;17.00;30.70;;;;;;5168217;27;47062;-24
2022/03/25 04:54:23;;;;;;;4.97;4.47;;;17.00;30.80;;;;;;5168597;27;46890;-23
2022/03/25 04:56:51;;;;;;;5.00;3.83;;;16.90;30.80;;;;;;5168553;27;46806;-25
2022/03/25 04:59:18;;;;;;;4.95;4.20;;;16.90;30.80;;;;;;5168236;27;46804;-25
2022/03/25 05:01:44;;;;;;;4.68;4.10;;;16.90;30.80;;;;;;5168101;27;47449;-25
2022/03/25 05:04:11;;;;;;;3.88;3.47;;;16.90;30.80;;;;;;5168433;27;47058;-25
2022/03/25 05:06:38;;;;;;;5.63;4.20;;;16.90;30.80;;;;;;5168358;27;46975;-13
2022/03/25 05:09:06;;;;;;;4.55;4.07;;;16.90;30.80;;;;;;5168199;27;49119;-14
2022/03/25 05:11:33;;;;;;;4.10;3.67;;;16.90;30.80;;;;;;5167936;27;47132;-13
2022/03/25 05:14:01;;;;;;;4.40;4.00;;;16.80;30.80;;;;;;5168039;27;46957;-13
2022/03/25 05:16:28;;;;;;;4.28;3.78;;;16.80;30.80;;;;;;5167980;27;47228;-13
2022/03/25 05:18:54;;;;;;;4.40;4.00;;;16.80;30.80;;;;;;5168120;27;48239;-14
2022/03/25 05:21:21;;;;;;;4.68;4.10;;;16.80;30.90;;;;;;5167634;27;46814;-13
2022/03/25 05:23:48;;;;;;;7.32;4.10;;;16.70;30.90;;;;;;5168096;27;46906;-14
2022/03/25 05:26:15;;;;;;;4.57;4.07;;;16.70;30.80;;;;;;5167801;27;46899;-14
2022/03/25 05:28:42;;;;;;;5.55;3.90;;;16.70;30.90;;;;;;5167710;27;48112;-13
2022/03/25 05:31:10;;;;;;;5.78;4.22;;;16.70;30.90;;;;;;5167476;27;46904;-26
2022/03/25 05:33:37;;;;;;;4.32;3.90;;;16.70;31.00;;;;;;5167634;27;46922;-25
2022/03/25 05:36:05;;;;;;;4.20;3.80;;;16.70;31.00;;;;;;5167604;27;46820;-26
2022/03/25 05:38:32;;;;;;;4.20;3.80;;;16.60;31.00;;;;;;5167667;27;47946;-25
2022/03/25 05:40:59;;;;;;;4.57;3.95;;;16.60;31.00;;;;;;5167433;27;46909;-25
2022/03/25 05:43:25;;;;;;;5.47;3.80;;;16.60;31.00;;;;;;5171520;27;46797;-26
2022/03/25 05:45:52;;;;;;;6.72;4.22;;;16.60;31.00;;;;;;5171500;27;47132;-25
2022/03/25 05:48:20;;;;;;;4.18;3.78;;;16.60;31.00;;;;;;5171284;27;48790;-26
2022/03/25 05:50:47;;;;;;;4.88;4.38;;;16.60;31.00;;;;;;5171207;27;46992;-25
2022/03/25 05:53:14;;;;;;;3.90;3.60;;;16.60;31.00;;;;;;5171037;27;46843;-25
2022/03/25 05:55:40;;;;;;;4.97;4.00;;;16.60;31.00;;;;;;5171151;27;47153;-25
2022/03/25 05:58:08;;;;;;;3.97;3.38;;;16.50;30.90;;;;;;5171301;27;47077;-14
2022/03/25 06:00:34;;;;;;;4.00;3.60;;;16.50;30.90;;;;;;5170928;27;46918;-14
2022/03/25 06:03:01;;;;;;;3.92;3.53;;;16.50;30.90;;;;;;5170909;27;46932;-14
2022/03/25 06:05:29;;;;;;;4.85;3.60;;;16.50;31.00;;;;;;5171084;27;47021;-13
2022/03/25 06:07:56;;;;;;;4.07;3.60;;;16.50;30.90;;;;;;5170663;27;47930;-13
2022/03/25 06:10:23;;;;;;;4.65;3.97;;;16.50;31.00;;;;;;5170854;27;46808;-14
2022/03/25 06:12:49;;;;;;;4.20;3.78;;;16.50;31.00;;;;;;5170765;27;46907;-14
2022/03/25 06:15:16;;;;;;;5.53;3.83;;;16.40;30.90;;;;;;5171097;27;47202;-14
2022/03/25 06:17:44;;;;;;;5.07;4.25;;;16.40;31.00;;;;;;5170968;27;48254;-25
2022/03/25 06:20:12;;;;;;;3.97;3.50;;;16.40;31.00;;;;;;5170820;27;46850;-26
2022/03/25 06:22:40;;;;;;;4.32;3.63;;;16.40;31.00;;;;;;5170588;27;46834;-25
2022/03/25 06:25:08;;;;;;;3.85;3.50;;;16.50;31.10;;;;;;5170998;27;46925;-25
2022/03/25 06:27:35;;;;;;;5.15;3.50;;;16.40;31.00;;;;;;5170817;27;47063;-25
2022/03/25 06:30:01;;;;;;;4.95;3.63;;;16.40;31.00;;;;;;5170424;27;47583;-25
2022/03/25 06:32:28;;;;;;;4.82;3.85;;;16.40;31.00;;;;;;5170684;27;46711;-14
2022/03/25 06:34:55;;;;;;;4.32;3.78;;;16.40;30.90;;;;;;5170492;27;47284;-13
2022/03/25 06:37:22;;;;;;;5.85;3.97;;;16.40;31.00;;;;;;5170477;27;48076;-14
2022/03/25 06:39:50;;;;;;;4.25;3.80;;;16.40;31.00;;;;;;5170302;27;46977;-14
2022/03/25 06:42:16;;;;;;;4.32;3.90;;;16.40;31.00;;;;;;5170125;27;46871;-14
2022/03/25 06:44:43;;;;;;;4.43;3.92;;;16.40;31.00;;;;;;5170400;27;47260;-14
2022/03/25 06:47:10;;;;;;;4.38;3.63;;;16.40;30.90;;;;;;5169733;27;46907;-14
2022/03/25 06:49:37;;;;;;;4.68;3.80;;;16.40;31.00;;;;;;5170347;27;47221;-14
2022/03/25 06:52:05;;;;;;;4.72;3.72;;;16.40;31.00;;;;;;5169904;27;46900;-25
2022/03/25 06:54:33;;;;;;;3.95;3.53;;;16.40;31.00;;;;;;5169410;27;46923;-26
2022/03/25 06:57:02;;;;;;;4.05;3.65;;;16.40;31.00;;;;;;5170008;27;47062;-26
2022/03/25 06:59:29;;;;;;;3.88;3.58;;;16.40;31.10;;;;;;5170165;27;47067;-26
2022/03/25 07:01:56;;;;;;;5.22;3.55;;;16.40;31.00;;;;;;5169843;27;46875;-25
2022/03/25 07:04:23;;;;;;;4.45;3.65;;;16.40;31.10;;;;;;5170185;27;47172;-25
2022/03/25 07:06:51;;;;;;;6.30;3.80;;;16.40;31.10;;;;;;5169479;27;48785;-26
2022/03/25 07:09:19;;;;;;;6.05;4.25;;;16.40;31.00;;;;;;5164867;27;47189;-26
2022/03/25 07:11:47;;;;;;;7.32;5.10;;;16.40;31.20;;;;;;5169195;27;46945;-26
2022/03/25 07:14:15;;;;;;;13.05;6.65;;;16.40;31.60;;;;;;5169702;27;47098;-14
2022/03/25 07:16:42;;;;;;;10.07;7.32;;;16.30;32.20;;;;;;5169542;27;49134;-14
2022/03/25 07:19:09;;;;;;;11.68;8.18;;;16.30;32.70;;;;;;5168852;27;47014;-14
2022/03/25 07:21:36;;;;;;;11.70;8.63;;;16.20;32.90;;;;;;5169205;27;46904;-16
2022/03/25 07:24:03;;;;;;;13.23;10.15;;;16.20;33.70;;;;;;5169640;27;47287;-14
2022/03/25 07:26:29;;;;;;;15.57;9.90;;;16.10;34.20;;;;;;5169349;27;47957;-14
2022/03/25 07:28:56;;;;;;;13.65;9.23;;;16.00;34.40;;;;;;5169499;27;46860;-14
2022/03/25 07:31:28;;;;;;;18.02;9.52;;;16.00;34.30;;;;;;5169430;27;47020;-13
2022/03/25 07:33:54;;;;;;;14.75;10.55;;;16.00;34.40;;;;;;5169860;27;46892;-14
2022/03/25 07:36:21;;;;;;;16.88;10.73;;;16.00;34.60;;;;;;5169496;27;46987;-15
2022/03/25 07:38:48;;;;;;;15.45;10.55;;;16.00;34.40;;;;;;5169050;27;46954;-14
2022/03/25 07:41:15;;;;;;;16.58;11.13;;;15.90;34.30;;;;;;5167646;27;46963;-15
2022/03/25 07:43:41;;;;;;;15.27;10.68;;;16.00;34.50;;;;;;5168711;27;46986;-15
2022/03/25 07:46:08;;;;;;;15.15;10.52;;;16.00;34.50;;;;;;5168855;27;48475;-13
2022/03/25 07:48:36;;;;;;;16.85;11.30;;;16.00;34.70;;;;;;5168580;27;47089;-23
2022/03/25 07:51:03;;;;;;;17.15;11.07;;;16.00;34.70;;;;;;5169133;27;46890;-23
2022/03/25 07:53:31;;;;;;;16.83;10.88;;;16.00;34.70;;;;;;5168875;27;47278;-23
2022/03/25 07:55:58;;;;;;;15.02;11.15;;;16.00;34.70;;;;;;5168589;27;46822;-23
2022/03/25 07:58:25;;;;;;;14.90;10.55;;;16.00;34.50;;;;;;5168847;27;46882;-14
2022/03/25 08:00:52;;;;;;;19.48;11.52;;;16.00;34.40;;;;;;5168931;27;47180;-14
2022/03/25 08:03:19;;;;;;;16.13;10.65;;;16.00;34.60;;;;;;5167988;27;47296;-14
2022/03/25 08:05:50;;;;;;;22.95;12.05;;;16.00;34.40;;;;;;5168333;27;46958;-14
2022/03/25 08:08:19;;;;;;;16.85;11.63;;;16.10;34.50;;;;;;5168044;27;47897;-14
2022/03/25 08:10:46;;;;;;;14.95;10.63;;;16.10;34.50;;;;;;5167353;27;46986;-14
2022/03/25 08:13:13;;;;;;;18.45;11.88;;;16.10;34.60;;;;;;5166959;27;46913;-14
2022/03/25 08:15:40;;;;;;;14.65;10.65;;;16.10;34.60;;;;;;5166290;27;47922;-14
2022/03/25 08:18:07;;;;;;;14.68;10.65;;;16.10;34.60;;;;;;5167417;27;47459;-13
2022/03/25 08:20:36;;;;;;;16.45;10.82;;;16.10;34.60;;;;;;5166229;27;46942;-14
2022/03/25 08:23:05;;;;;;;16.40;11.10;;;16.20;34.60;;;;;;5167342;27;46994;-14
2022/03/25 08:28:17;;;;;;;17.52;11.25;;;16.20;34.60;;;;;;5148379;27;47308;-12
2022/03/25 08:30:44;;;;;;;16.33;11.30;;;16.20;34.30;;;;;;5166365;27;47040;-12
2022/03/25 08:33:12;;;;;;;18.95;11.32;;;16.20;34.60;;;;;;5166901;27;47098;-14
2022/03/25 08:35:39;;;;;;;17.52;11.38;;;16.20;34.50;;;;;;5167888;27;48000;-26
2022/03/25 08:38:07;;;;;;;17.30;11.52;;;16.20;34.60;;;;;;5166232;27;47078;-25
2022/03/25 08:40:34;;;;;;;15.60;11.25;;;16.30;34.60;;;;;;5166205;27;47157;-25
2022/03/25 08:43:01;;;;;;;15.25;10.73;;;16.30;34.50;;;;;;5166963;27;46967;-25
2022/03/25 08:45:28;;;;;;;18.35;11.00;;;16.30;34.50;;;;;;5165984;27;49012;-25
2022/03/25 08:47:55;;;;;;;17.45;11.43;;;16.30;34.40;;;;;;5166410;27;47340;-25
2022/03/25 08:50:24;;;;;;;15.70;10.68;;;16.30;34.30;;;;;;5163052;27;46908;-25
2022/03/25 08:52:51;;;;;;;19.48;10.32;;;16.40;34.30;;;;;;5163469;27;47298;-25
2022/03/25 08:55:20;;;;;;;19.63;11.05;;;16.40;34.40;;;;;;5167964;27;47982;-25
2022/03/25 08:57:47;;;;;;;16.13;11.30;;;16.40;34.40;;;;;;5168034;27;47159;-25
2022/03/25 09:00:15;;;;;;;17.45;10.77;;;16.40;34.60;;;;;;5167402;27;46959;-25
2022/03/25 09:02:42;;;;;;;16.27;10.75;;;16.50;34.60;;;;;;5168463;27;47369;-25
2022/03/25 09:05:09;;;;;;;16.52;11.60;;;16.50;34.70;;;;;;5167504;27;47865;-25
2022/03/25 09:07:37;;;;;;;17.80;11.00;;;16.50;34.60;;;;;;5168098;27;47440;-25
2022/03/25 09:10:04;;;;;;;18.88;12.38;;;16.50;34.60;;;;;;5167596;27;46904;-25
2022/03/25 09:12:33;;;;;;;16.60;11.20;;;16.50;34.50;;;;;;5167660;27;47278;-25
2022/03/25 09:14:59;;;;;;;17.92;11.65;;;16.60;34.40;;;;;;5167710;27;48285;-25
2022/03/25 09:17:26;;;;;;;18.40;11.80;;;16.60;34.20;;;;;;5170316;27;46741;-24
2022/03/25 09:19:53;;;;;;;19.85;11.95;;;16.60;34.10;;;;;;5171611;27;46975;-24
2022/03/25 09:22:20;;;;;;;17.50;11.52;;;16.60;34.10;;;;;;5171290;27;47177;-24
2022/03/25 09:24:47;;;;;;;18.92;12.30;;;16.70;34.20;;;;;;5170939;27;48046;-24
2022/03/25 09:27:13;;;;;;;20.60;13.48;;;16.70;34.10;;;;;;5170277;27;46912;-24
2022/03/25 09:29:43;;;;;;;20.08;13.50;;;16.70;34.30;;;;;;5166837;27;47135;-25
2022/03/25 09:32:10;;;;;;;20.73;13.45;;;16.70;34.00;;;;;;5156661;27;47341;-25
2022/03/25 09:37:21;;;;;;;21.25;14.15;;;16.70;34.20;;;;;;5167250;27;46939;-25
2022/03/25 09:39:48;;;;;;;22.58;13.38;;;16.70;34.00;;;;;;5170201;27;46988;-25
2022/03/25 09:42:15;;;;;;;20.33;12.30;;;16.70;33.80;;;;;;5170419;27;47119;-23
2022/03/25 09:44:43;;;;;;;17.55;12.20;;;16.70;34.40;;;;;;5170388;27;47989;-24
2022/03/25 09:47:10;;;;;;;16.52;11.40;;;16.80;33.80;;;;;;5170853;27;47080;-24
2022/03/25 09:49:37;;;;;;;16.48;10.73;;;16.80;33.70;;;;;;5170837;27;46829;-24
2022/03/25 09:52:05;;;;;;;18.25;10.27;;;16.90;33.70;;;;;;5170928;27;46728;-24
2022/03/25 09:54:32;;;;;;;16.38;10.18;;;16.90;33.70;;;;;;5170528;27;49209;-24
2022/03/25 09:56:59;;;;;;;15.10;10.25;;;17.00;33.50;;;;;;5169729;27;47154;-25
2022/03/25 09:59:26;;;;;;;14.95;9.60;;;17.00;33.50;;;;;;5170765;27;47049;-24
2022/03/25 10:01:54;;;;;;;14.63;9.55;;;17.10;33.50;;;;;;5170972;27;46864;-24
2022/03/25 10:04:41;;;;;;;17.13;9.68;;;17.10;33.60;;;;;;5170238;27;46903;-24
2022/03/25 10:07:15;;;;;;;14.85;8.80;;;17.20;33.20;;;;;;5170558;27;47164;-24
2022/03/25 10:09:42;;;;;;;13.38;9.00;;;17.20;33.20;;;;;;5169813;27;47005;-24
2022/03/25 10:12:24;;;;;;;14.05;8.73;;;17.20;33.80;;;;;;5151169;27;46862;-24
2022/03/25 10:14:52;;;;;;;13.70;8.43;;;17.30;33.20;;;;;;5163121;27;47378;-22
2022/03/25 10:17:20;;;;;;;11.25;8.68;;;17.30;33.20;;;;;;5166314;27;47005;-23
2022/03/25 10:19:48;;;;;;;12.90;8.30;;;17.40;33.30;;;;;;5163200;27;47034;-24
2022/03/25 10:22:15;;;;;;;12.63;8.13;;;17.40;33.20;;;;;;5169776;27;47093;-24
2022/03/25 10:24:44;;;;;;;11.55;7.78;;;17.40;33.10;;;;;;5171306;27;47038;-26
2022/03/25 10:27:11;;;;;;;11.43;7.68;;;17.50;33.20;;;;;;5170591;27;47229;-26
2022/03/25 10:29:38;;;;;;;12.13;7.57;;;17.50;33.00;;;;;;5168919;27;46968;-14
2022/03/25 10:32:07;;;;;;;11.63;8.00;;;17.60;33.10;;;;;;5170101;27;47323;-26
2022/03/25 10:34:35;;;;;;;11.77;7.57;;;17.60;33.00;;;;;;5169400;27;47005;-13
2022/03/25 10:37:02;;;;;;;9.05;6.95;;;17.70;32.90;;;;;;5166150;27;47401;-13
2022/03/25 10:39:29;;;;;;;9.82;6.95;;;17.70;32.80;;;;;;5159676;27;46941;-13
2022/03/25 10:41:58;;;;;;;13.15;7.82;;;17.70;32.60;;;;;;5170392;27;47191;-13
2022/03/25 10:44:33;;;;;;;8.40;6.70;;;17.80;32.70;;;;;;5169653;27;49161;-13
2022/03/25 10:47:00;;;;;;;10.82;6.90;;;17.90;33.00;;;;;;5169910;27;46981;-12
2022/03/25 10:49:27;;;;;;;8.98;6.50;;;17.90;33.00;;;;;;5170132;27;46998;-13
2022/03/25 10:51:56;;;;;;;11.13;7.15;;;18.00;32.70;;;;;;5169650;27;47290;-13
2022/03/25 10:54:24;;;;;;;9.13;7.28;;;18.10;32.70;;;;;;5170095;27;46888;-13
2022/03/25 10:56:51;;;;;;;10.70;7.68;;;18.10;33.30;;;;;;5169717;27;47120;-13
2022/03/25 10:59:22;;;;;;;10.93;8.00;;;18.20;32.60;;;;;;5169939;27;46838;-13
2022/03/25 11:01:50;;;;;;;8.40;6.75;;;18.30;32.70;;;;;;5169860;27;46859;-12
2022/03/25 11:04:17;;;;;;;10.70;7.30;;;18.30;32.60;;;;;;5169716;27;47083;-13
2022/03/25 11:06:44;;;;;;;8.00;6.43;;;18.40;32.60;;;;;;5169453;27;47590;-13
2022/03/25 11:09:13;;;;;;;8.55;6.13;;;18.40;32.50;;;;;;5169816;27;46940;-12
2022/03/25 11:11:40;;;;;;;10.40;7.25;;;18.50;32.40;;;;;;5169571;27;47331;-13
2022/03/25 11:14:07;;;;;;;8.88;7.13;;;18.50;32.30;;;;;;5169622;27;48772;-13
2022/03/25 11:16:33;;;;;;;8.93;7.38;;;18.60;32.30;;;;;;5169591;27;46937;-12
2022/03/25 11:19:00;;;;;;;11.00;7.40;;;18.70;32.40;;;;;;5162793;27;47006;-13
2022/03/25 11:21:27;;;;;;;8.73;7.68;;;18.70;32.10;;;;;;5157763;27;46917;-13
2022/03/25 11:23:55;;;;;;;13.27;7.60;;;18.80;32.40;;;;;;5168294;27;46910;-13
2022/03/25 11:26:25;;;;;;;8.35;6.63;;;18.80;32.30;;;;;;5169194;27;46865;-12
2022/03/25 11:28:52;;;;;;;10.05;7.55;;;18.90;32.20;;;;;;5169626;27;46984;-13
2022/03/25 11:31:19;;;;;;;8.98;6.38;;;19.00;32.10;;;;;;5169655;27;47047;-13
2022/03/25 11:34:05;;;;;;;12.00;6.88;;;19.10;32.10;;;;;;5169391;27;48862;-13
2022/03/25 11:36:32;;;;;;;9.18;7.32;;;19.10;32.00;;;;;;5168993;27;47415;-13
2022/03/25 11:39:18;;;;;;;9.32;7.18;;;19.20;32.00;;;;;;5168542;27;46747;-13
2022/03/25 11:41:46;;;;;;;9.63;7.50;;;19.30;32.00;;;;;;5169091;27;47377;-12
2022/03/25 11:44:26;;;;;;;9.13;7.30;;;19.30;31.90;;;;;;5168702;27;47810;-13
2022/03/25 11:47:17;;;;;;;11.48;7.70;;;19.40;32.00;;;;;;5169069;27;47433;-13
2022/03/25 11:49:44;;;;;;;8.32;6.95;;;19.40;31.90;;;;;;5169175;27;46757;-13
2022/03/25 11:52:27;;;;;;;9.00;7.22;;;19.50;31.80;;;;;;5169068;27;46874;-13
2022/03/25 11:54:55;;;;;;;9.15;7.05;;;19.60;31.90;;;;;;5168629;27;47958;-13
2022/03/25 11:57:24;;;;;;;10.07;7.03;;;19.60;31.70;;;;;;5169126;27;47488;-13
2022/03/25 11:59:51;;;;;;;12.10;7.47;;;19.70;31.80;;;;;;5169133;27;46977;-13
2022/03/25 12:02:32;;;;;;;9.85;6.30;;;19.70;31.90;;;;;;5168838;27;46839;-13
2022/03/25 12:04:59;;;;;;;8.23;6.85;;;19.80;31.80;;;;;;5168457;27;47076;-12
2022/03/25 12:07:26;;;;;;;7.90;6.63;;;19.90;31.60;;;;;;5168518;27;47069;-13
2022/03/25 12:09:53;;;;;;;10.13;7.30;;;20.00;31.60;;;;;;5168504;27;46769;-13
2022/03/25 12:12:21;;;;;;;7.45;6.65;;;20.00;31.60;;;;;;5168885;27;46983;-14
2022/03/25 12:15:11;;;;;;;10.35;7.05;;;20.10;32.20;;;;;;5167871;27;46947;-13
2022/03/25 12:17:38;;;;;;;9.23;6.93;;;20.10;31.60;;;;;;5168262;27;46848;-14
2022/03/25 12:20:07;;;;;;;10.43;7.40;;;20.20;31.50;;;;;;5168391;27;46992;-13
2022/03/25 12:22:37;;;;;;;8.65;6.57;;;20.20;31.60;;;;;;5167710;27;47062;-14
2022/03/25 12:25:18;;;;;;;8.60;7.25;;;20.30;31.50;;;;;;5167907;27;47064;-14
2022/03/25 12:27:45;;;;;;;9.48;7.32;;;20.40;31.40;;;;;;5168352;27;46997;-14
2022/03/25 12:30:14;;;;;;;8.55;6.75;;;20.40;31.60;;;;;;5167738;27;47041;-13
2022/03/25 12:32:41;;;;;;;8.82;7.28;;;20.50;31.50;;;;;;5168911;27;47109;-14
2022/03/25 12:35:08;;;;;;;8.52;6.63;;;20.50;31.50;;;;;;5167927;27;47048;-14
2022/03/25 12:37:49;;;;;;;8.50;6.68;;;20.60;31.40;;;;;;5168479;27;46818;-13
2022/03/25 12:40:17;;;;;;;10.07;7.28;;;20.60;31.40;;;;;;5168043;27;47027;-14
2022/03/25 12:42:44;;;;;;;11.73;7.70;;;20.70;31.80;;;;;;5168689;27;46904;-14
2022/03/25 12:45:10;;;;;;;10.15;7.47;;;20.70;31.80;;;;;;5167796;27;48759;-13
2022/03/25 12:47:43;;;;;;;7.22;6.53;;;20.80;31.60;;;;;;5167996;27;46927;-13